sensor_id;sensor_type;location;lat;lon;timestamp;P1;durP1;ratioP1;P2;durP2;ratioP2
53293;SDS011;39181;53.440;5.644;2023-02-22T00:01:23;47.58;;;23.38;;
53293;SDS011;39181;53.440;5.644;2023-02-22T00:04:11;48.90;;;23.40;;
53293;SDS011;39181;53.440;5.644;2023-02-22T00:06:37;46.67;;;24.50;;
53293;SDS011;39181;53.440;5.644;2023-02-22T00:09:03;53.33;;;26.25;;
53293;SDS011;39181;53.440;5.644;2023-02-22T00:11:28;53.15;;;25.23;;
53293;SDS011;39181;53.440;5.644;2023-02-22T00:13:55;53.13;;;25.27;;
53293;SDS011;39181;53.440;5.644;2023-02-22T00:16:21;53.08;;;25.00;;
53293;SDS011;39181;53.440;5.644;2023-02-22T00:18:48;49.30;;;25.65;;
53293;SDS011;39181;53.440;5.644;2023-02-22T00:21:17;57.97;;;26.63;;
53293;SDS011;39181;53.440;5.644;2023-02-22T00:23:44;49.35;;;23.17;;
53293;SDS011;39181;53.440;5.644;2023-02-22T00:26:11;52.75;;;24.63;;
53293;SDS011;39181;53.440;5.644;2023-02-22T00:28:45;55.53;;;25.70;;
53293;SDS011;39181;53.440;5.644;2023-02-22T00:31:15;53.70;;;25.52;;
53293;SDS011;39181;53.440;5.644;2023-02-22T00:33:41;53.20;;;25.20;;
53293;SDS011;39181;53.440;5.644;2023-02-22T00:36:08;54.13;;;25.42;;
53293;SDS011;39181;53.440;5.644;2023-02-22T00:38:35;50.53;;;25.17;;
53293;SDS011;39181;53.440;5.644;2023-02-22T00:41:01;53.95;;;24.38;;
53293;SDS011;39181;53.440;5.644;2023-02-22T00:43:26;58.83;;;25.23;;
53293;SDS011;39181;53.440;5.644;2023-02-22T00:45:52;49.42;;;25.38;;
53293;SDS011;39181;53.440;5.644;2023-02-22T00:48:18;54.05;;;25.50;;
53293;SDS011;39181;53.440;5.644;2023-02-22T00:50:43;58.22;;;25.40;;
53293;SDS011;39181;53.440;5.644;2023-02-22T00:53:09;58.13;;;25.38;;
53293;SDS011;39181;53.440;5.644;2023-02-22T00:55:36;64.65;;;28.95;;
53293;SDS011;39181;53.440;5.644;2023-02-22T00:58:03;59.38;;;27.52;;
53293;SDS011;39181;53.440;5.644;2023-02-22T01:00:33;61.47;;;27.08;;
53293;SDS011;39181;53.440;5.644;2023-02-22T01:03:01;63.50;;;28.33;;
53293;SDS011;39181;53.440;5.644;2023-02-22T01:05:28;54.58;;;26.60;;
53293;SDS011;39181;53.440;5.644;2023-02-22T01:07:55;68.22;;;28.08;;
53293;SDS011;39181;53.440;5.644;2023-02-22T01:10:22;61.08;;;27.83;;
53293;SDS011;39181;53.440;5.644;2023-02-22T01:12:49;61.15;;;28.33;;
53293;SDS011;39181;53.440;5.644;2023-02-22T01:15:16;64.60;;;28.10;;
53293;SDS011;39181;53.440;5.644;2023-02-22T01:17:47;57.20;;;27.80;;
53293;SDS011;39181;53.440;5.644;2023-02-22T01:20:17;67.28;;;27.35;;
53293;SDS011;39181;53.440;5.644;2023-02-22T01:22:47;62.60;;;27.50;;
53293;SDS011;39181;53.440;5.644;2023-02-22T01:25:15;60.78;;;26.00;;
53293;SDS011;39181;53.440;5.644;2023-02-22T01:27:42;61.65;;;26.13;;
53293;SDS011;39181;53.440;5.644;2023-02-22T01:30:09;62.33;;;25.90;;
53293;SDS011;39181;53.440;5.644;2023-02-22T01:32:38;59.05;;;27.00;;
53293;SDS011;39181;53.440;5.644;2023-02-22T01:35:06;57.50;;;23.65;;
53293;SDS011;39181;53.440;5.644;2023-02-22T01:37:35;52.42;;;22.90;;
53293;SDS011;39181;53.440;5.644;2023-02-22T01:40:01;53.15;;;23.52;;
53293;SDS011;39181;53.440;5.644;2023-02-22T01:42:28;58.80;;;23.33;;
53293;SDS011;39181;53.440;5.644;2023-02-22T01:48:04;50.25;;;21.33;;
53293;SDS011;39181;53.440;5.644;2023-02-22T01:50:38;48.88;;;20.83;;
53293;SDS011;39181;53.440;5.644;2023-02-22T01:53:07;51.05;;;21.73;;
53293;SDS011;39181;53.440;5.644;2023-02-22T01:55:35;54.47;;;20.98;;
53293;SDS011;39181;53.440;5.644;2023-02-22T01:58:01;54.60;;;20.60;;
53293;SDS011;39181;53.440;5.644;2023-02-22T02:00:29;53.67;;;21.88;;
53293;SDS011;39181;53.440;5.644;2023-02-22T02:03:00;54.38;;;21.10;;
53293;SDS011;39181;53.440;5.644;2023-02-22T02:05:30;50.78;;;20.45;;
53293;SDS011;39181;53.440;5.644;2023-02-22T02:07:58;50.55;;;20.88;;
53293;SDS011;39181;53.440;5.644;2023-02-22T02:10:29;44.55;;;19.67;;
53293;SDS011;39181;53.440;5.644;2023-02-22T02:12:56;42.58;;;18.08;;
53293;SDS011;39181;53.440;5.644;2023-02-22T02:15:30;47.95;;;19.35;;
53293;SDS011;39181;53.440;5.644;2023-02-22T02:18:00;38.38;;;16.80;;
53293;SDS011;39181;53.440;5.644;2023-02-22T02:23:23;41.35;;;17.88;;
53293;SDS011;39181;53.440;5.644;2023-02-22T02:31:57;41.83;;;18.48;;
53293;SDS011;39181;53.440;5.644;2023-02-22T02:37:29;40.63;;;17.70;;
53293;SDS011;39181;53.440;5.644;2023-02-22T02:42:58;43.35;;;18.73;;
53293;SDS011;39181;53.440;5.644;2023-02-22T02:45:53;44.88;;;18.10;;
53293;SDS011;39181;53.440;5.644;2023-02-22T02:48:27;43.22;;;18.80;;
53293;SDS011;39181;53.440;5.644;2023-02-22T02:50:57;41.58;;;16.73;;
53293;SDS011;39181;53.440;5.644;2023-02-22T02:53:26;43.20;;;18.40;;
53293;SDS011;39181;53.440;5.644;2023-02-22T02:55:59;42.40;;;18.30;;
53293;SDS011;39181;53.440;5.644;2023-02-22T02:58:25;44.30;;;18.38;;
53293;SDS011;39181;53.440;5.644;2023-02-22T03:00:52;42.47;;;17.95;;
53293;SDS011;39181;53.440;5.644;2023-02-22T03:03:44;41.40;;;17.88;;
53293;SDS011;39181;53.440;5.644;2023-02-22T03:11:52;42.25;;;17.27;;
53293;SDS011;39181;53.440;5.644;2023-02-22T03:14:39;43.25;;;17.00;;
53293;SDS011;39181;53.440;5.644;2023-02-22T03:17:20;41.50;;;18.15;;
53293;SDS011;39181;53.440;5.644;2023-02-22T03:19:50;40.53;;;17.65;;
53293;SDS011;39181;53.440;5.644;2023-02-22T03:22:27;42.88;;;18.13;;
53293;SDS011;39181;53.440;5.644;2023-02-22T03:25:02;40.20;;;17.58;;
53293;SDS011;39181;53.440;5.644;2023-02-22T03:30:22;43.60;;;17.13;;
53293;SDS011;39181;53.440;5.644;2023-02-22T03:32:55;44.40;;;18.63;;
53293;SDS011;39181;53.440;5.644;2023-02-22T03:35:24;43.13;;;18.83;;
53293;SDS011;39181;53.440;5.644;2023-02-22T03:37:56;44.70;;;19.33;;
53293;SDS011;39181;53.440;5.644;2023-02-22T03:40:33;43.95;;;17.92;;
53293;SDS011;39181;53.440;5.644;2023-02-22T03:43:06;48.40;;;18.75;;
53293;SDS011;39181;53.440;5.644;2023-02-22T03:45:38;41.22;;;18.75;;
53293;SDS011;39181;53.440;5.644;2023-02-22T03:50:56;43.63;;;18.45;;
53293;SDS011;39181;53.440;5.644;2023-02-22T03:53:22;45.17;;;19.65;;
53293;SDS011;39181;53.440;5.644;2023-02-22T03:55:48;42.67;;;18.88;;
53293;SDS011;39181;53.440;5.644;2023-02-22T03:58:16;43.72;;;18.75;;
53293;SDS011;39181;53.440;5.644;2023-02-22T04:00:44;45.33;;;20.13;;
53293;SDS011;39181;53.440;5.644;2023-02-22T04:03:10;52.30;;;19.58;;
53293;SDS011;39181;53.440;5.644;2023-02-22T04:05:36;52.45;;;20.77;;
53293;SDS011;39181;53.440;5.644;2023-02-22T04:08:02;49.35;;;20.92;;
53293;SDS011;39181;53.440;5.644;2023-02-22T04:10:29;46.15;;;17.90;;
53293;SDS011;39181;53.440;5.644;2023-02-22T04:12:55;51.28;;;21.67;;
53293;SDS011;39181;53.440;5.644;2023-02-22T04:15:22;48.55;;;20.40;;
53293;SDS011;39181;53.440;5.644;2023-02-22T04:17:48;47.20;;;20.83;;
53293;SDS011;39181;53.440;5.644;2023-02-22T04:20:16;51.97;;;20.33;;
53293;SDS011;39181;53.440;5.644;2023-02-22T04:22:44;45.72;;;19.85;;
53293;SDS011;39181;53.440;5.644;2023-02-22T04:25:10;46.80;;;19.50;;
53293;SDS011;39181;53.440;5.644;2023-02-22T04:27:35;46.83;;;19.48;;
53293;SDS011;39181;53.440;5.644;2023-02-22T04:30:01;51.05;;;21.30;;
53293;SDS011;39181;53.440;5.644;2023-02-22T04:32:27;50.88;;;20.75;;
53293;SDS011;39181;53.440;5.644;2023-02-22T04:34:52;45.85;;;19.02;;
53293;SDS011;39181;53.440;5.644;2023-02-22T04:37:18;49.75;;;20.38;;
53293;SDS011;39181;53.440;5.644;2023-02-22T04:39:44;51.25;;;20.35;;
53293;SDS011;39181;53.440;5.644;2023-02-22T04:42:09;45.80;;;20.10;;
53293;SDS011;39181;53.440;5.644;2023-02-22T04:44:35;51.85;;;19.55;;
53293;SDS011;39181;53.440;5.644;2023-02-22T04:47:00;50.33;;;20.58;;
53293;SDS011;39181;53.440;5.644;2023-02-22T04:49:26;44.10;;;18.58;;
53293;SDS011;39181;53.440;5.644;2023-02-22T04:51:51;47.25;;;20.85;;
53293;SDS011;39181;53.440;5.644;2023-02-22T04:54:17;47.90;;;19.55;;
53293;SDS011;39181;53.440;5.644;2023-02-22T04:56:43;47.20;;;20.25;;
53293;SDS011;39181;53.440;5.644;2023-02-22T04:59:09;48.75;;;18.98;;
53293;SDS011;39181;53.440;5.644;2023-02-22T05:01:35;43.63;;;18.75;;
53293;SDS011;39181;53.440;5.644;2023-02-22T05:04:02;48.75;;;18.75;;
53293;SDS011;39181;53.440;5.644;2023-02-22T05:06:28;42.55;;;19.13;;
53293;SDS011;39181;53.440;5.644;2023-02-22T05:08:53;52.25;;;19.70;;
53293;SDS011;39181;53.440;5.644;2023-02-22T05:11:19;51.58;;;19.95;;
53293;SDS011;39181;53.440;5.644;2023-02-22T05:13:45;49.63;;;19.75;;
53293;SDS011;39181;53.440;5.644;2023-02-22T05:16:11;51.08;;;20.35;;
53293;SDS011;39181;53.440;5.644;2023-02-22T05:18:37;47.08;;;19.60;;
53293;SDS011;39181;53.440;5.644;2023-02-22T05:21:02;39.75;;;17.83;;
53293;SDS011;39181;53.440;5.644;2023-02-22T05:23:28;37.72;;;16.85;;
53293;SDS011;39181;53.440;5.644;2023-02-22T05:25:53;33.42;;;16.30;;
53293;SDS011;39181;53.440;5.644;2023-02-22T05:28:19;30.02;;;14.85;;
53293;SDS011;39181;53.440;5.644;2023-02-22T05:30:45;33.90;;;14.93;;
53293;SDS011;39181;53.440;5.644;2023-02-22T05:33:10;31.17;;;15.10;;
53293;SDS011;39181;53.440;5.644;2023-02-22T05:35:37;30.52;;;16.33;;
53293;SDS011;39181;53.440;5.644;2023-02-22T05:38:03;36.13;;;16.95;;
53293;SDS011;39181;53.440;5.644;2023-02-22T05:40:29;34.22;;;16.52;;
53293;SDS011;39181;53.440;5.644;2023-02-22T05:42:56;31.70;;;15.70;;
53293;SDS011;39181;53.440;5.644;2023-02-22T05:45:23;35.00;;;16.20;;
53293;SDS011;39181;53.440;5.644;2023-02-22T05:47:50;35.45;;;16.42;;
53293;SDS011;39181;53.440;5.644;2023-02-22T05:50:16;34.08;;;16.35;;
53293;SDS011;39181;53.440;5.644;2023-02-22T05:52:43;31.13;;;15.52;;
53293;SDS011;39181;53.440;5.644;2023-02-22T05:55:10;30.17;;;16.00;;
53293;SDS011;39181;53.440;5.644;2023-02-22T05:57:38;33.30;;;17.05;;
53293;SDS011;39181;53.440;5.644;2023-02-22T06:00:04;30.38;;;14.35;;
53293;SDS011;39181;53.440;5.644;2023-02-22T06:02:31;29.88;;;15.68;;
53293;SDS011;39181;53.440;5.644;2023-02-22T06:04:57;28.05;;;14.05;;
53293;SDS011;39181;53.440;5.644;2023-02-22T06:07:23;31.13;;;15.35;;
53293;SDS011;39181;53.440;5.644;2023-02-22T06:09:49;31.48;;;15.30;;
53293;SDS011;39181;53.440;5.644;2023-02-22T06:12:15;30.17;;;14.63;;
53293;SDS011;39181;53.440;5.644;2023-02-22T06:14:44;32.97;;;14.88;;
53293;SDS011;39181;53.440;5.644;2023-02-22T06:17:11;30.90;;;15.38;;
53293;SDS011;39181;53.440;5.644;2023-02-22T06:19:37;28.83;;;14.50;;
53293;SDS011;39181;53.440;5.644;2023-02-22T06:22:17;29.42;;;14.98;;
53293;SDS011;39181;53.440;5.644;2023-02-22T06:27:09;26.77;;;13.63;;
53293;SDS011;39181;53.440;5.644;2023-02-22T06:29:35;29.58;;;14.27;;
53293;SDS011;39181;53.440;5.644;2023-02-22T06:32:00;30.75;;;13.65;;
53293;SDS011;39181;53.440;5.644;2023-02-22T06:34:26;26.25;;;13.02;;
53293;SDS011;39181;53.440;5.644;2023-02-22T06:36:51;27.67;;;12.98;;
53293;SDS011;39181;53.440;5.644;2023-02-22T06:39:17;28.75;;;12.80;;
53293;SDS011;39181;53.440;5.644;2023-02-22T06:41:43;28.90;;;14.18;;
53293;SDS011;39181;53.440;5.644;2023-02-22T06:44:10;28.02;;;13.57;;
53293;SDS011;39181;53.440;5.644;2023-02-22T06:46:37;27.70;;;13.88;;
53293;SDS011;39181;53.440;5.644;2023-02-22T06:49:03;27.23;;;14.68;;
53293;SDS011;39181;53.440;5.644;2023-02-22T06:51:30;24.05;;;12.98;;
53293;SDS011;39181;53.440;5.644;2023-02-22T06:54:00;30.80;;;12.88;;
53293;SDS011;39181;53.440;5.644;2023-02-22T06:56:27;29.83;;;13.40;;
53293;SDS011;39181;53.440;5.644;2023-02-22T06:58:52;29.20;;;14.57;;
53293;SDS011;39181;53.440;5.644;2023-02-22T07:01:18;27.90;;;13.20;;
53293;SDS011;39181;53.440;5.644;2023-02-22T07:03:43;27.77;;;13.45;;
53293;SDS011;39181;53.440;5.644;2023-02-22T07:06:09;29.83;;;14.98;;
53293;SDS011;39181;53.440;5.644;2023-02-22T07:08:35;31.30;;;13.40;;
53293;SDS011;39181;53.440;5.644;2023-02-22T07:11:00;24.80;;;13.00;;
53293;SDS011;39181;53.440;5.644;2023-02-22T07:13:26;31.02;;;13.93;;
53293;SDS011;39181;53.440;5.644;2023-02-22T07:15:54;26.83;;;13.38;;
53293;SDS011;39181;53.440;5.644;2023-02-22T07:18:22;29.00;;;13.77;;
53293;SDS011;39181;53.440;5.644;2023-02-22T07:20:49;27.05;;;13.05;;
53293;SDS011;39181;53.440;5.644;2023-02-22T07:23:15;31.73;;;13.90;;
53293;SDS011;39181;53.440;5.644;2023-02-22T07:25:41;28.90;;;14.45;;
53293;SDS011;39181;53.440;5.644;2023-02-22T07:28:10;28.00;;;13.68;;
53293;SDS011;39181;53.440;5.644;2023-02-22T07:30:35;31.33;;;14.20;;
53293;SDS011;39181;53.440;5.644;2023-02-22T07:33:03;30.88;;;15.05;;
53293;SDS011;39181;53.440;5.644;2023-02-22T07:38:04;37.58;;;15.25;;
53293;SDS011;39181;53.440;5.644;2023-02-22T07:40:35;32.95;;;15.57;;
53293;SDS011;39181;53.440;5.644;2023-02-22T07:43:12;32.95;;;16.55;;
53293;SDS011;39181;53.440;5.644;2023-02-22T07:45:43;31.92;;;14.82;;
53293;SDS011;39181;53.440;5.644;2023-02-22T07:48:09;32.58;;;16.75;;
53293;SDS011;39181;53.440;5.644;2023-02-22T07:50:38;33.13;;;15.75;;
53293;SDS011;39181;53.440;5.644;2023-02-22T07:53:06;29.30;;;14.52;;
53293;SDS011;39181;53.440;5.644;2023-02-22T07:55:36;35.08;;;16.52;;
53293;SDS011;39181;53.440;5.644;2023-02-22T07:58:04;37.42;;;17.00;;
53293;SDS011;39181;53.440;5.644;2023-02-22T08:00:34;31.98;;;17.02;;
53293;SDS011;39181;53.440;5.644;2023-02-22T08:03:02;31.25;;;16.17;;
53293;SDS011;39181;53.440;5.644;2023-02-22T08:05:32;35.22;;;17.27;;
53293;SDS011;39181;53.440;5.644;2023-02-22T08:08:00;35.85;;;18.10;;
53293;SDS011;39181;53.440;5.644;2023-02-22T08:10:26;36.45;;;18.83;;
53293;SDS011;39181;53.440;5.644;2023-02-22T08:12:59;39.65;;;19.95;;
53293;SDS011;39181;53.440;5.644;2023-02-22T08:15:29;43.65;;;21.13;;
53293;SDS011;39181;53.440;5.644;2023-02-22T08:17:56;46.17;;;22.05;;
53293;SDS011;39181;53.440;5.644;2023-02-22T08:20:33;46.13;;;24.88;;
53293;SDS011;39181;53.440;5.644;2023-02-22T08:22:59;47.72;;;23.08;;
53293;SDS011;39181;53.440;5.644;2023-02-22T08:25:26;52.53;;;27.05;;
53293;SDS011;39181;53.440;5.644;2023-02-22T08:27:56;52.97;;;26.30;;
53293;SDS011;39181;53.440;5.644;2023-02-22T08:30:25;52.80;;;28.05;;
53293;SDS011;39181;53.440;5.644;2023-02-22T08:32:52;58.05;;;28.30;;
53293;SDS011;39181;53.440;5.644;2023-02-22T08:35:22;57.58;;;28.35;;
53293;SDS011;39181;53.440;5.644;2023-02-22T08:37:52;56.00;;;28.23;;
53293;SDS011;39181;53.440;5.644;2023-02-22T08:40:21;61.22;;;28.75;;
53293;SDS011;39181;53.440;5.644;2023-02-22T08:42:48;58.63;;;28.67;;
53293;SDS011;39181;53.440;5.644;2023-02-22T08:45:14;56.42;;;29.02;;
53293;SDS011;39181;53.440;5.644;2023-02-22T08:47:40;62.88;;;30.40;;
53293;SDS011;39181;53.440;5.644;2023-02-22T08:50:13;61.88;;;30.48;;
53293;SDS011;39181;53.440;5.644;2023-02-22T08:52:52;68.13;;;31.75;;
53293;SDS011;39181;53.440;5.644;2023-02-22T08:55:19;60.08;;;31.75;;
53293;SDS011;39181;53.440;5.644;2023-02-22T08:57:46;65.35;;;32.00;;
53293;SDS011;39181;53.440;5.644;2023-02-22T09:00:12;69.45;;;33.95;;
53293;SDS011;39181;53.440;5.644;2023-02-22T09:02:38;68.40;;;33.25;;
53293;SDS011;39181;53.440;5.644;2023-02-22T09:05:04;62.45;;;31.50;;
53293;SDS011;39181;53.440;5.644;2023-02-22T09:07:30;65.20;;;32.67;;
53293;SDS011;39181;53.440;5.644;2023-02-22T09:09:56;64.40;;;31.45;;
53293;SDS011;39181;53.440;5.644;2023-02-22T09:12:22;66.00;;;31.77;;
53293;SDS011;39181;53.440;5.644;2023-02-22T09:14:51;67.35;;;32.60;;
53293;SDS011;39181;53.440;5.644;2023-02-22T09:17:16;67.32;;;33.88;;
53293;SDS011;39181;53.440;5.644;2023-02-22T09:19:42;70.82;;;34.15;;
53293;SDS011;39181;53.440;5.644;2023-02-22T09:22:09;77.70;;;35.15;;
53293;SDS011;39181;53.440;5.644;2023-02-22T09:24:35;75.82;;;36.08;;
53293;SDS011;39181;53.440;5.644;2023-02-22T09:27:00;79.35;;;35.72;;
53293;SDS011;39181;53.440;5.644;2023-02-22T09:29:28;79.05;;;35.30;;
53293;SDS011;39181;53.440;5.644;2023-02-22T09:31:55;73.15;;;35.85;;
53293;SDS011;39181;53.440;5.644;2023-02-22T09:34:22;79.88;;;39.25;;
53293;SDS011;39181;53.440;5.644;2023-02-22T09:36:53;89.65;;;41.55;;
53293;SDS011;39181;53.440;5.644;2023-02-22T09:39:22;88.30;;;41.10;;
53293;SDS011;39181;53.440;5.644;2023-02-22T09:45:05;94.93;;;44.33;;
53293;SDS011;39181;53.440;5.644;2023-02-22T09:47:39;93.30;;;43.80;;
53293;SDS011;39181;53.440;5.644;2023-02-22T09:50:11;101.45;;;44.38;;
53293;SDS011;39181;53.440;5.644;2023-02-22T09:52:42;99.15;;;43.47;;
53293;SDS011;39181;53.440;5.644;2023-02-22T09:55:27;101.57;;;45.85;;
53293;SDS011;39181;53.440;5.644;2023-02-22T09:57:58;102.18;;;44.60;;
53293;SDS011;39181;53.440;5.644;2023-02-22T10:00:34;102.28;;;44.90;;
53293;SDS011;39181;53.440;5.644;2023-02-22T10:05:54;100.43;;;45.65;;
53293;SDS011;39181;53.440;5.644;2023-02-22T10:08:27;113.60;;;49.92;;
53293;SDS011;39181;53.440;5.644;2023-02-22T10:11:03;115.00;;;48.55;;
53293;SDS011;39181;53.440;5.644;2023-02-22T10:16:39;112.85;;;48.58;;
53293;SDS011;39181;53.440;5.644;2023-02-22T10:19:26;117.80;;;51.08;;
53293;SDS011;39181;53.440;5.644;2023-02-22T10:22:26;111.88;;;48.95;;
53293;SDS011;39181;53.440;5.644;2023-02-22T10:25:00;112.55;;;48.47;;
53293;SDS011;39181;53.440;5.644;2023-02-22T10:27:50;115.35;;;48.08;;
53293;SDS011;39181;53.440;5.644;2023-02-22T10:32:49;102.57;;;46.63;;
53293;SDS011;39181;53.440;5.644;2023-02-22T10:35:24;108.00;;;45.35;;
53293;SDS011;39181;53.440;5.644;2023-02-22T10:38:05;118.23;;;50.43;;
53293;SDS011;39181;53.440;5.644;2023-02-22T10:43:37;108.25;;;49.17;;
53293;SDS011;39181;53.440;5.644;2023-02-22T10:46:06;111.90;;;48.65;;
53293;SDS011;39181;53.440;5.644;2023-02-22T10:48:37;105.78;;;46.75;;
53293;SDS011;39181;53.440;5.644;2023-02-22T10:51:05;108.00;;;47.03;;
53293;SDS011;39181;53.440;5.644;2023-02-22T10:53:36;108.75;;;49.35;;
53293;SDS011;39181;53.440;5.644;2023-02-22T11:01:16;107.75;;;47.13;;
53293;SDS011;39181;53.440;5.644;2023-02-22T11:03:57;107.03;;;46.85;;
53293;SDS011;39181;53.440;5.644;2023-02-22T11:06:25;114.78;;;48.15;;
53293;SDS011;39181;53.440;5.644;2023-02-22T11:08:58;96.90;;;44.90;;
53293;SDS011;39181;53.440;5.644;2023-02-22T11:11:34;109.85;;;46.25;;
53293;SDS011;39181;53.440;5.644;2023-02-22T11:14:02;98.43;;;45.13;;
53293;SDS011;39181;53.440;5.644;2023-02-22T11:19:14;106.57;;;46.63;;
53293;SDS011;39181;53.440;5.644;2023-02-22T11:21:57;101.55;;;45.90;;
53293;SDS011;39181;53.440;5.644;2023-02-22T11:24:29;98.50;;;45.90;;
53293;SDS011;39181;53.440;5.644;2023-02-22T11:27:00;105.47;;;45.97;;
53293;SDS011;39181;53.440;5.644;2023-02-22T11:29:31;102.22;;;45.42;;
53293;SDS011;39181;53.440;5.644;2023-02-22T11:32:01;96.28;;;45.85;;
53293;SDS011;39181;53.440;5.644;2023-02-22T11:34:37;97.47;;;42.35;;
53293;SDS011;39181;53.440;5.644;2023-02-22T11:37:15;97.10;;;45.17;;
53293;SDS011;39181;53.440;5.644;2023-02-22T11:40:03;97.00;;;43.97;;
53293;SDS011;39181;53.440;5.644;2023-02-22T11:42:47;97.30;;;44.97;;
53293;SDS011;39181;53.440;5.644;2023-02-22T11:53:10;102.30;;;44.97;;
53293;SDS011;39181;53.440;5.644;2023-02-22T11:56:45;99.85;;;44.35;;
53293;SDS011;39181;53.440;5.644;2023-02-22T12:06:59;103.63;;;44.72;;
53293;SDS011;39181;53.440;5.644;2023-02-22T12:20:45;96.63;;;42.72;;
53293;SDS011;39181;53.440;5.644;2023-02-22T12:25:56;95.20;;;43.70;;
53293;SDS011;39181;53.440;5.644;2023-02-22T12:28:27;97.35;;;44.15;;
53293;SDS011;39181;53.440;5.644;2023-02-22T12:31:12;102.22;;;45.15;;
53293;SDS011;39181;53.440;5.644;2023-02-22T12:36:52;101.47;;;45.08;;
53293;SDS011;39181;53.440;5.644;2023-02-22T12:42:00;93.10;;;43.88;;
53293;SDS011;39181;53.440;5.644;2023-02-22T12:44:32;88.43;;;42.13;;
53293;SDS011;39181;53.440;5.644;2023-02-22T12:47:02;91.05;;;42.63;;
53293;SDS011;39181;53.440;5.644;2023-02-22T12:49:33;95.80;;;42.58;;
53293;SDS011;39181;53.440;5.644;2023-02-22T12:55:08;90.10;;;42.78;;
53293;SDS011;39181;53.440;5.644;2023-02-22T13:00:18;88.00;;;40.42;;
53293;SDS011;39181;53.440;5.644;2023-02-22T13:05:24;84.93;;;39.38;;
53293;SDS011;39181;53.440;5.644;2023-02-22T13:15:44;81.15;;;38.45;;
53293;SDS011;39181;53.440;5.644;2023-02-22T13:20:58;87.10;;;39.47;;
53293;SDS011;39181;53.440;5.644;2023-02-22T13:29:28;88.40;;;38.70;;
53293;SDS011;39181;53.440;5.644;2023-02-22T13:32:07;86.05;;;39.08;;
53293;SDS011;39181;53.440;5.644;2023-02-22T13:40:56;80.65;;;36.75;;
53293;SDS011;39181;53.440;5.644;2023-02-22T13:43:53;87.07;;;37.35;;
53293;SDS011;39181;53.440;5.644;2023-02-22T13:47:26;88.50;;;37.78;;
53293;SDS011;39181;53.440;5.644;2023-02-22T13:52:30;86.45;;;37.53;;
53293;SDS011;39181;53.440;5.644;2023-02-22T13:55:03;89.15;;;37.78;;
53293;SDS011;39181;53.440;5.644;2023-02-22T14:00:37;88.90;;;35.25;;
53293;SDS011;39181;53.440;5.644;2023-02-22T14:03:28;91.38;;;36.63;;
53293;SDS011;39181;53.440;5.644;2023-02-22T14:06:00;87.68;;;36.95;;
53293;SDS011;39181;53.440;5.644;2023-02-22T14:10:56;93.05;;;38.80;;
53293;SDS011;39181;53.440;5.644;2023-02-22T14:13:32;95.22;;;37.40;;
53293;SDS011;39181;53.440;5.644;2023-02-22T14:21:33;97.28;;;39.17;;
53293;SDS011;39181;53.440;5.644;2023-02-22T14:24:05;93.53;;;37.85;;
53293;SDS011;39181;53.440;5.644;2023-02-22T14:26:39;92.95;;;37.95;;
53293;SDS011;39181;53.440;5.644;2023-02-22T14:29:16;101.40;;;39.72;;
53293;SDS011;39181;53.440;5.644;2023-02-22T14:34:09;93.05;;;38.40;;
53293;SDS011;39181;53.440;5.644;2023-02-22T14:39:42;100.88;;;39.65;;
53293;SDS011;39181;53.440;5.644;2023-02-22T14:42:28;91.88;;;39.08;;
53293;SDS011;39181;53.440;5.644;2023-02-22T14:44:59;88.43;;;37.88;;
53293;SDS011;39181;53.440;5.644;2023-02-22T14:47:40;83.32;;;34.47;;
53293;SDS011;39181;53.440;5.644;2023-02-22T14:50:30;85.50;;;34.13;;
53293;SDS011;39181;53.440;5.644;2023-02-22T14:55:43;89.05;;;35.13;;
53293;SDS011;39181;53.440;5.644;2023-02-22T14:59:01;85.53;;;35.85;;
53293;SDS011;39181;53.440;5.644;2023-02-22T15:01:23;85.45;;;35.22;;
53293;SDS011;39181;53.440;5.644;2023-02-22T15:03:54;93.85;;;37.17;;
53293;SDS011;39181;53.440;5.644;2023-02-22T15:06:24;85.60;;;35.83;;
53293;SDS011;39181;53.440;5.644;2023-02-22T15:09:10;83.03;;;33.40;;
53293;SDS011;39181;53.440;5.644;2023-02-22T15:11:38;86.78;;;34.35;;
53293;SDS011;39181;53.440;5.644;2023-02-22T15:17:36;87.50;;;34.30;;
53293;SDS011;39181;53.440;5.644;2023-02-22T15:19:54;76.47;;;32.08;;
53293;SDS011;39181;53.440;5.644;2023-02-22T15:22:22;78.80;;;32.42;;
53293;SDS011;39181;53.440;5.644;2023-02-22T15:24:59;78.78;;;32.15;;
53293;SDS011;39181;53.440;5.644;2023-02-22T15:27:27;81.30;;;32.13;;
53293;SDS011;39181;53.440;5.644;2023-02-22T15:29:57;81.63;;;34.00;;
53293;SDS011;39181;53.440;5.644;2023-02-22T15:35:10;83.85;;;32.40;;
53293;SDS011;39181;53.440;5.644;2023-02-22T15:37:38;83.65;;;33.65;;
53293;SDS011;39181;53.440;5.644;2023-02-22T15:40:05;81.30;;;34.58;;
53293;SDS011;39181;53.440;5.644;2023-02-22T15:42:48;89.95;;;32.80;;
53293;SDS011;39181;53.440;5.644;2023-02-22T15:45:18;90.63;;;34.20;;
53293;SDS011;39181;53.440;5.644;2023-02-22T15:47:45;80.68;;;32.22;;
53293;SDS011;39181;53.440;5.644;2023-02-22T15:50:26;83.63;;;32.30;;
53293;SDS011;39181;53.440;5.644;2023-02-22T15:53:03;85.20;;;32.97;;
53293;SDS011;39181;53.440;5.644;2023-02-22T15:55:41;83.30;;;32.42;;
53293;SDS011;39181;53.440;5.644;2023-02-22T16:00:43;87.85;;;33.40;;
53293;SDS011;39181;53.440;5.644;2023-02-22T16:03:15;89.03;;;32.95;;
53293;SDS011;39181;53.440;5.644;2023-02-22T16:05:50;88.35;;;34.97;;
53293;SDS011;39181;53.440;5.644;2023-02-22T16:08:21;85.25;;;32.72;;
53293;SDS011;39181;53.440;5.644;2023-02-22T16:11:06;91.38;;;32.95;;
53293;SDS011;39181;53.440;5.644;2023-02-22T16:13:40;97.20;;;37.42;;
53293;SDS011;39181;53.440;5.644;2023-02-22T16:18:41;93.47;;;33.15;;
53293;SDS011;39181;53.440;5.644;2023-02-22T16:21:08;90.45;;;34.70;;
53293;SDS011;39181;53.440;5.644;2023-02-22T16:27:00;99.85;;;37.55;;
53293;SDS011;39181;53.440;5.644;2023-02-22T16:30:04;91.82;;;33.97;;
53293;SDS011;39181;53.440;5.644;2023-02-22T16:32:32;85.88;;;32.72;;
53293;SDS011;39181;53.440;5.644;2023-02-22T16:34:58;82.07;;;31.40;;
53293;SDS011;39181;53.440;5.644;2023-02-22T16:37:23;85.55;;;33.97;;
53293;SDS011;39181;53.440;5.644;2023-02-22T16:39:49;92.40;;;33.78;;
53293;SDS011;39181;53.440;5.644;2023-02-22T16:42:17;89.72;;;31.42;;
53293;SDS011;39181;53.440;5.644;2023-02-22T16:44:50;88.45;;;33.75;;
53293;SDS011;39181;53.440;5.644;2023-02-22T16:47:16;91.65;;;34.03;;
53293;SDS011;39181;53.440;5.644;2023-02-22T16:49:42;96.07;;;35.65;;
53293;SDS011;39181;53.440;5.644;2023-02-22T16:52:07;93.75;;;34.50;;
53293;SDS011;39181;53.440;5.644;2023-02-22T16:54:34;95.80;;;33.63;;
53293;SDS011;39181;53.440;5.644;2023-02-22T16:57:05;99.07;;;34.15;;
53293;SDS011;39181;53.440;5.644;2023-02-22T16:59:31;89.60;;;33.28;;
53293;SDS011;39181;53.440;5.644;2023-02-22T17:02:02;95.50;;;34.30;;
53293;SDS011;39181;53.440;5.644;2023-02-22T17:04:31;91.82;;;33.53;;
53293;SDS011;39181;53.440;5.644;2023-02-22T17:06:57;96.10;;;32.67;;
53293;SDS011;39181;53.440;5.644;2023-02-22T17:09:23;93.57;;;33.42;;
53293;SDS011;39181;53.440;5.644;2023-02-22T17:11:49;94.13;;;34.78;;
53293;SDS011;39181;53.440;5.644;2023-02-22T17:14:18;94.30;;;33.70;;
53293;SDS011;39181;53.440;5.644;2023-02-22T17:16:50;82.03;;;31.73;;
53293;SDS011;39181;53.440;5.644;2023-02-22T17:19:17;95.57;;;33.70;;